Groningen Airport Eelde

EHGG · Drenthe, 荷兰

罗盘
风向 的 风向 040° Groningen Airport Eelde 5/23
风: 9 kt, 3 beaufort

9 kt

2 kt
改变
0 1.000 2.000 3.000 4.000 5.000
SCT 600 ft
OVC 700 ft
METAR EHGG 050955Z AUTO 04009KT 9999 SCT006 OVC007 05/04 Q1020 TEMPO 4000 DZ

METAR Groningen Airport Eelde - EHGG/GRQ

Groningen Airport Eelde是,荷兰中的中型机场。 该机场有一条跑道: 5/23. 该领域的国际民航组织标志是EHGG 它的国际航空运输协会代码是GRQ.

这份报告是针对2022年12月5日 10:55, 当地时间在Groningen Airport Eelde进行的。

机场观察

风向为040°,速度为9 kt。

可见度为10 km 或者更多。

有疏云,零星散落的云朵在600 ft的高度 和 乌云密布在700 ft的高度。 破损或更高的上限为700 ft。

温度为5 °C,阵风为0 °C。 露点为4 °C,相对湿度为93%。 海平面上的气压为1020 hPa (QNH)。

发展趋势

  • 暂时的

    可变方向的风很小或没有。 可见性变为4 km。 重大天气:细雨。

白天

今天,太阳从08:30升起,在16:18降落。 这适用于Groningen Airport Eelde,世界夏令时可能有所不同。 当地时间与世界标准时间之间的时差为+1 小时。 当前,没有夏令时有效。

公司介绍

在这个机场,你可以找到飞行学校。 这个机场上的公司有Noord Nederlandse Aeroclub- Eelde, Skyline Aviation B.V., Martinair Flight Academy, KLM Luchtvaartschool 和 EFTC。

体会

到Vliegles.nl去找飞行课程,跳伞和其他飞行体验。 浏览页面,了解Groningen Airport Eelde附近所有可用的活动。 你也可以使用搜索功能来寻找你所在地附近的特定飞行课程、跳伞或其他飞行体验。

跑道

Id 标题 侧风 逆风 侧风 %
5/23 052°-232° 2 kt 9 kt 21 %

逆风成分最大的方向会被突出显示,并用于横风计算。 这并不一定意味着这个方向在使用。

乌云

600 ft SCT 疏云,零星散落的云朵
700 ft OVC 乌云密布

温度 & 天气

温度 5 °C
露点 4 °C
相对湿度 93%
风寒 0 °C
Kp-index 1 (0-9)

白天

日出
08:30
中午
12:24
日落
16:18 (4:57)

小工具

你想在你的网站上有一个关于Groningen Airport Eelde的当前航空天气(METAR)的小部件吗?

显示HTML代码

我们和第三方通过cookies跟踪您在我们网站上的互联网行为。如果你继续,我们认为你同意我们的饼干政策